sensor_id;sensor_type;location;lat;lon;timestamp;P1;durP1;ratioP1;P2;durP2;ratioP2
1404;SDS011;697;51.114;6.542;2022-09-03T00:01:18;2.17;;;1.90;;
1404;SDS011;697;51.114;6.542;2022-09-03T00:03:50;2.47;;;1.40;;
1404;SDS011;697;51.114;6.542;2022-09-03T00:06:23;2.80;;;1.70;;
1404;SDS011;697;51.114;6.542;2022-09-03T00:08:56;3.03;;;1.90;;
1404;SDS011;697;51.114;6.542;2022-09-03T00:11:29;4.03;;;1.80;;
1404;SDS011;697;51.114;6.542;2022-09-03T00:14:05;2.97;;;2.00;;
1404;SDS011;697;51.114;6.542;2022-09-03T00:16:42;2.47;;;2.27;;
1404;SDS011;697;51.114;6.542;2022-09-03T00:19:11;2.90;;;1.90;;
1404;SDS011;697;51.114;6.542;2022-09-03T00:21:44;2.57;;;1.57;;
1404;SDS011;697;51.114;6.542;2022-09-03T00:24:15;1.70;;;1.60;;
1404;SDS011;697;51.114;6.542;2022-09-03T00:26:47;2.73;;;1.30;;
1404;SDS011;697;51.114;6.542;2022-09-03T00:29:18;1.77;;;1.67;;
1404;SDS011;697;51.114;6.542;2022-09-03T00:31:49;1.80;;;1.70;;
1404;SDS011;697;51.114;6.542;2022-09-03T00:34:21;2.30;;;2.10;;
1404;SDS011;697;51.114;6.542;2022-09-03T00:36:53;2.13;;;1.80;;
1404;SDS011;697;51.114;6.542;2022-09-03T00:39:21;3.50;;;2.20;;
1404;SDS011;697;51.114;6.542;2022-09-03T00:41:53;4.37;;;2.47;;
1404;SDS011;697;51.114;6.542;2022-09-03T00:44:35;1.97;;;1.77;;
1404;SDS011;697;51.114;6.542;2022-09-03T00:47:15;4.50;;;2.23;;
1404;SDS011;697;51.114;6.542;2022-09-03T00:49:53;2.80;;;2.30;;
1404;SDS011;697;51.114;6.542;2022-09-03T00:52:31;5.77;;;1.80;;
1404;SDS011;697;51.114;6.542;2022-09-03T00:55:10;2.40;;;2.20;;
1404;SDS011;697;51.114;6.542;2022-09-03T00:57:50;2.70;;;1.63;;
1404;SDS011;697;51.114;6.542;2022-09-03T01:00:27;3.20;;;1.90;;
1404;SDS011;697;51.114;6.542;2022-09-03T01:02:56;2.90;;;1.87;;
1404;SDS011;697;51.114;6.542;2022-09-03T01:05:35;2.57;;;1.93;;
1404;SDS011;697;51.114;6.542;2022-09-03T01:08:19;4.30;;;2.13;;
1404;SDS011;697;51.114;6.542;2022-09-03T01:11:01;4.80;;;1.67;;
1404;SDS011;697;51.114;6.542;2022-09-03T01:13:42;6.40;;;1.70;;
1404;SDS011;697;51.114;6.542;2022-09-03T01:16:14;4.83;;;2.10;;
1404;SDS011;697;51.114;6.542;2022-09-03T01:18:51;2.20;;;1.63;;
1404;SDS011;697;51.114;6.542;2022-09-03T01:21:30;9.87;;;2.80;;
1404;SDS011;697;51.114;6.542;2022-09-03T01:24:24;2.63;;;2.07;;
1404;SDS011;697;51.114;6.542;2022-09-03T01:27:16;2.47;;;1.80;;
1404;SDS011;697;51.114;6.542;2022-09-03T01:29:58;2.63;;;2.00;;
1404;SDS011;697;51.114;6.542;2022-09-03T01:32:30;2.13;;;1.83;;
1404;SDS011;697;51.114;6.542;2022-09-03T01:35:08;2.50;;;1.77;;
1404;SDS011;697;51.114;6.542;2022-09-03T01:37:43;2.40;;;1.67;;
1404;SDS011;697;51.114;6.542;2022-09-03T01:40:23;2.43;;;1.57;;
1404;SDS011;697;51.114;6.542;2022-09-03T01:43:02;5.60;;;1.77;;
1404;SDS011;697;51.114;6.542;2022-09-03T01:45:43;3.20;;;1.63;;
1404;SDS011;697;51.114;6.542;2022-09-03T01:48:22;1.93;;;1.73;;
1404;SDS011;697;51.114;6.542;2022-09-03T01:51:07;3.80;;;2.30;;
1404;SDS011;697;51.114;6.542;2022-09-03T01:53:59;10.60;;;2.20;;
1404;SDS011;697;51.114;6.542;2022-09-03T01:56:42;3.47;;;1.50;;
1404;SDS011;697;51.114;6.542;2022-09-03T01:59:26;1.70;;;1.60;;
1404;SDS011;697;51.114;6.542;2022-09-03T02:01:58;2.40;;;1.87;;
1404;SDS011;697;51.114;6.542;2022-09-03T02:04:30;3.20;;;1.97;;
1404;SDS011;697;51.114;6.542;2022-09-03T02:06:57;3.57;;;1.70;;
1404;SDS011;697;51.114;6.542;2022-09-03T02:09:25;1.50;;;1.40;;
1404;SDS011;697;51.114;6.542;2022-09-03T02:11:54;4.40;;;2.07;;
1404;SDS011;697;51.114;6.542;2022-09-03T02:14:24;4.10;;;1.60;;
1404;SDS011;697;51.114;6.542;2022-09-03T02:16:54;2.60;;;1.67;;
1404;SDS011;697;51.114;6.542;2022-09-03T02:19:26;5.97;;;2.17;;
1404;SDS011;697;51.114;6.542;2022-09-03T02:21:55;5.20;;;2.10;;
1404;SDS011;697;51.114;6.542;2022-09-03T02:24:22;2.40;;;1.77;;
1404;SDS011;697;51.114;6.542;2022-09-03T02:26:51;3.10;;;1.97;;
1404;SDS011;697;51.114;6.542;2022-09-03T02:29:18;6.93;;;1.90;;
1404;SDS011;697;51.114;6.542;2022-09-03T02:31:46;3.40;;;1.80;;
1404;SDS011;697;51.114;6.542;2022-09-03T02:34:13;4.23;;;2.00;;
1404;SDS011;697;51.114;6.542;2022-09-03T02:36:42;2.33;;;2.13;;
1404;SDS011;697;51.114;6.542;2022-09-03T02:39:11;2.90;;;1.60;;
1404;SDS011;697;51.114;6.542;2022-09-03T02:41:38;3.23;;;1.90;;
1404;SDS011;697;51.114;6.542;2022-09-03T02:44:07;1.77;;;1.43;;
1404;SDS011;697;51.114;6.542;2022-09-03T02:46:39;2.27;;;1.50;;
1404;SDS011;697;51.114;6.542;2022-09-03T02:49:09;3.53;;;1.60;;
1404;SDS011;697;51.114;6.542;2022-09-03T02:51:37;2.17;;;1.80;;
1404;SDS011;697;51.114;6.542;2022-09-03T02:54:07;3.20;;;1.30;;
1404;SDS011;697;51.114;6.542;2022-09-03T02:56:34;1.77;;;1.30;;
1404;SDS011;697;51.114;6.542;2022-09-03T02:59:02;1.37;;;1.27;;
1404;SDS011;697;51.114;6.542;2022-09-03T03:01:29;1.60;;;1.47;;
1404;SDS011;697;51.114;6.542;2022-09-03T03:03:57;1.90;;;1.80;;
1404;SDS011;697;51.114;6.542;2022-09-03T03:06:24;2.17;;;1.33;;
1404;SDS011;697;51.114;6.542;2022-09-03T03:08:51;1.50;;;1.40;;
1404;SDS011;697;51.114;6.542;2022-09-03T03:11:22;1.37;;;1.27;;
1404;SDS011;697;51.114;6.542;2022-09-03T03:13:50;1.73;;;1.20;;
1404;SDS011;697;51.114;6.542;2022-09-03T03:16:17;1.40;;;1.27;;
1404;SDS011;697;51.114;6.542;2022-09-03T03:18:44;2.80;;;1.33;;
1404;SDS011;697;51.114;6.542;2022-09-03T03:21:12;3.30;;;1.57;;
1404;SDS011;697;51.114;6.542;2022-09-03T03:23:41;1.53;;;1.43;;
1404;SDS011;697;51.114;6.542;2022-09-03T03:26:09;8.37;;;1.50;;
1404;SDS011;697;51.114;6.542;2022-09-03T03:28:38;1.90;;;1.37;;
1404;SDS011;697;51.114;6.542;2022-09-03T03:31:06;1.80;;;1.30;;
1404;SDS011;697;51.114;6.542;2022-09-03T03:33:33;3.23;;;1.23;;
1404;SDS011;697;51.114;6.542;2022-09-03T03:36:02;2.57;;;1.40;;
1404;SDS011;697;51.114;6.542;2022-09-03T03:38:30;1.20;;;1.10;;
1404;SDS011;697;51.114;6.542;2022-09-03T03:40:56;1.57;;;1.10;;
1404;SDS011;697;51.114;6.542;2022-09-03T03:43:23;1.10;;;0.93;;
1404;SDS011;697;51.114;6.542;2022-09-03T03:45:56;1.60;;;1.30;;
1404;SDS011;697;51.114;6.542;2022-09-03T03:48:23;3.40;;;1.53;;
1404;SDS011;697;51.114;6.542;2022-09-03T03:50:49;1.27;;;1.13;;
1404;SDS011;697;51.114;6.542;2022-09-03T03:53:16;3.53;;;1.20;;
1404;SDS011;697;51.114;6.542;2022-09-03T03:55:52;1.40;;;1.27;;
1404;SDS011;697;51.114;6.542;2022-09-03T03:58:21;2.57;;;1.37;;
1404;SDS011;697;51.114;6.542;2022-09-03T04:00:48;1.43;;;1.10;;
1404;SDS011;697;51.114;6.542;2022-09-03T04:03:16;1.20;;;1.10;;
1404;SDS011;697;51.114;6.542;2022-09-03T04:05:53;1.23;;;1.13;;
1404;SDS011;697;51.114;6.542;2022-09-03T04:08:20;2.03;;;0.90;;
1404;SDS011;697;51.114;6.542;2022-09-03T04:10:47;1.17;;;1.07;;
1404;SDS011;697;51.114;6.542;2022-09-03T04:13:14;1.20;;;1.00;;
1404;SDS011;697;51.114;6.542;2022-09-03T04:15:41;1.53;;;1.20;;
1404;SDS011;697;51.114;6.542;2022-09-03T04:18:08;1.80;;;1.20;;
1404;SDS011;697;51.114;6.542;2022-09-03T04:20:36;2.10;;;1.50;;
1404;SDS011;697;51.114;6.542;2022-09-03T04:23:03;2.10;;;1.40;;
1404;SDS011;697;51.114;6.542;2022-09-03T04:25:31;0.93;;;0.93;;
1404;SDS011;697;51.114;6.542;2022-09-03T04:27:57;1.33;;;1.00;;
1404;SDS011;697;51.114;6.542;2022-09-03T04:30:24;2.13;;;1.33;;
1404;SDS011;697;51.114;6.542;2022-09-03T04:32:51;2.27;;;1.10;;
1404;SDS011;697;51.114;6.542;2022-09-03T04:35:18;2.40;;;1.20;;
1404;SDS011;697;51.114;6.542;2022-09-03T04:37:47;1.20;;;1.10;;
1404;SDS011;697;51.114;6.542;2022-09-03T04:40:14;3.77;;;1.50;;
1404;SDS011;697;51.114;6.542;2022-09-03T04:42:41;1.43;;;1.33;;
1404;SDS011;697;51.114;6.542;2022-09-03T04:45:08;2.30;;;1.10;;
1404;SDS011;697;51.114;6.542;2022-09-03T04:47:36;2.13;;;1.23;;
1404;SDS011;697;51.114;6.542;2022-09-03T04:50:03;1.00;;;0.90;;
1404;SDS011;697;51.114;6.542;2022-09-03T04:52:30;1.03;;;0.90;;
1404;SDS011;697;51.114;6.542;2022-09-03T04:54:58;1.30;;;1.07;;
1404;SDS011;697;51.114;6.542;2022-09-03T04:57:26;1.30;;;1.10;;
1404;SDS011;697;51.114;6.542;2022-09-03T04:59:58;2.47;;;1.30;;
1404;SDS011;697;51.114;6.542;2022-09-03T05:02:25;1.63;;;1.17;;
1404;SDS011;697;51.114;6.542;2022-09-03T05:04:51;1.53;;;1.10;;
1404;SDS011;697;51.114;6.542;2022-09-03T05:07:18;1.43;;;1.23;;
1404;SDS011;697;51.114;6.542;2022-09-03T05:09:45;1.93;;;1.33;;
1404;SDS011;697;51.114;6.542;2022-09-03T05:12:13;1.20;;;0.90;;
1404;SDS011;697;51.114;6.542;2022-09-03T05:14:41;3.53;;;1.00;;
1404;SDS011;697;51.114;6.542;2022-09-03T05:17:08;1.83;;;1.17;;
1404;SDS011;697;51.114;6.542;2022-09-03T05:19:35;1.40;;;1.30;;
1404;SDS011;697;51.114;6.542;2022-09-03T05:22:01;1.57;;;1.20;;
1404;SDS011;697;51.114;6.542;2022-09-03T05:24:28;3.73;;;1.20;;
1404;SDS011;697;51.114;6.542;2022-09-03T05:26:55;1.00;;;0.90;;
1404;SDS011;697;51.114;6.542;2022-09-03T05:29:23;1.47;;;1.00;;
1404;SDS011;697;51.114;6.542;2022-09-03T05:31:50;1.17;;;1.07;;
1404;SDS011;697;51.114;6.542;2022-09-03T05:34:17;0.80;;;0.80;;
1404;SDS011;697;51.114;6.542;2022-09-03T05:36:44;1.97;;;1.40;;
1404;SDS011;697;51.114;6.542;2022-09-03T05:39:14;1.07;;;0.87;;
1404;SDS011;697;51.114;6.542;2022-09-03T05:41:40;16.53;;;1.63;;
1404;SDS011;697;51.114;6.542;2022-09-03T05:44:07;2.20;;;1.20;;
1404;SDS011;697;51.114;6.542;2022-09-03T05:46:35;1.60;;;1.50;;
1404;SDS011;697;51.114;6.542;2022-09-03T05:49:03;1.70;;;1.13;;
1404;SDS011;697;51.114;6.542;2022-09-03T05:51:31;1.83;;;1.30;;
1404;SDS011;697;51.114;6.542;2022-09-03T05:53:59;1.40;;;1.30;;
1404;SDS011;697;51.114;6.542;2022-09-03T05:56:27;3.90;;;1.30;;
1404;SDS011;697;51.114;6.542;2022-09-03T05:58:57;2.40;;;1.13;;
1404;SDS011;697;51.114;6.542;2022-09-03T06:01:26;1.40;;;1.27;;
1404;SDS011;697;51.114;6.542;2022-09-03T06:03:56;3.20;;;1.43;;
1404;SDS011;697;51.114;6.542;2022-09-03T06:06:24;1.93;;;1.40;;
1404;SDS011;697;51.114;6.542;2022-09-03T06:08:53;2.00;;;1.13;;
1404;SDS011;697;51.114;6.542;2022-09-03T06:11:22;1.33;;;1.10;;
1404;SDS011;697;51.114;6.542;2022-09-03T06:13:52;2.20;;;1.20;;
1404;SDS011;697;51.114;6.542;2022-09-03T06:16:20;1.80;;;1.03;;
1404;SDS011;697;51.114;6.542;2022-09-03T06:18:47;2.57;;;1.53;;
1404;SDS011;697;51.114;6.542;2022-09-03T06:21:16;2.07;;;1.43;;
1404;SDS011;697;51.114;6.542;2022-09-03T06:23:47;1.00;;;0.90;;
1404;SDS011;697;51.114;6.542;2022-09-03T06:26:15;1.70;;;1.10;;
1404;SDS011;697;51.114;6.542;2022-09-03T06:28:42;1.47;;;1.30;;
1404;SDS011;697;51.114;6.542;2022-09-03T06:31:10;3.60;;;1.27;;
1404;SDS011;697;51.114;6.542;2022-09-03T06:33:38;1.37;;;1.27;;
1404;SDS011;697;51.114;6.542;2022-09-03T06:36:07;1.33;;;1.23;;
1404;SDS011;697;51.114;6.542;2022-09-03T06:38:37;2.97;;;1.53;;
1404;SDS011;697;51.114;6.542;2022-09-03T06:41:04;4.23;;;1.10;;
1404;SDS011;697;51.114;6.542;2022-09-03T06:43:33;5.77;;;1.10;;
1404;SDS011;697;51.114;6.542;2022-09-03T06:46:01;1.87;;;1.10;;
1404;SDS011;697;51.114;6.542;2022-09-03T06:48:31;2.73;;;1.30;;
1404;SDS011;697;51.114;6.542;2022-09-03T06:51:00;2.13;;;1.60;;
1404;SDS011;697;51.114;6.542;2022-09-03T06:53:30;4.30;;;1.47;;
1404;SDS011;697;51.114;6.542;2022-09-03T06:56:01;2.90;;;1.30;;
1404;SDS011;697;51.114;6.542;2022-09-03T06:58:29;1.60;;;1.10;;
1404;SDS011;697;51.114;6.542;2022-09-03T07:01:01;1.23;;;1.13;;
1404;SDS011;697;51.114;6.542;2022-09-03T07:03:30;1.70;;;1.47;;
1404;SDS011;697;51.114;6.542;2022-09-03T07:05:59;1.80;;;1.00;;
1404;SDS011;697;51.114;6.542;2022-09-03T07:08:26;1.77;;;1.20;;
1404;SDS011;697;51.114;6.542;2022-09-03T07:10:53;1.33;;;1.23;;
1404;SDS011;697;51.114;6.542;2022-09-03T07:13:21;2.90;;;1.03;;
1404;SDS011;697;51.114;6.542;2022-09-03T07:15:56;1.77;;;1.10;;
1404;SDS011;697;51.114;6.542;2022-09-03T07:18:24;4.93;;;1.03;;
1404;SDS011;697;51.114;6.542;2022-09-03T07:20:50;1.13;;;1.03;;
1404;SDS011;697;51.114;6.542;2022-09-03T07:23:17;1.20;;;1.10;;
1404;SDS011;697;51.114;6.542;2022-09-03T07:25:50;3.40;;;1.43;;
1404;SDS011;697;51.114;6.542;2022-09-03T07:28:19;2.13;;;1.20;;
1404;SDS011;697;51.114;6.542;2022-09-03T07:30:47;1.20;;;1.07;;
1404;SDS011;697;51.114;6.542;2022-09-03T07:33:13;2.10;;;1.13;;
1404;SDS011;697;51.114;6.542;2022-09-03T07:35:41;1.63;;;0.97;;
1404;SDS011;697;51.114;6.542;2022-09-03T07:38:07;1.80;;;1.00;;
1404;SDS011;697;51.114;6.542;2022-09-03T07:40:34;4.57;;;1.57;;
1404;SDS011;697;51.114;6.542;2022-09-03T07:43:03;1.97;;;1.20;;
1404;SDS011;697;51.114;6.542;2022-09-03T07:45:30;0.80;;;0.80;;
1404;SDS011;697;51.114;6.542;2022-09-03T07:47:58;1.50;;;1.20;;
1404;SDS011;697;51.114;6.542;2022-09-03T07:50:25;2.40;;;1.17;;
1404;SDS011;697;51.114;6.542;2022-09-03T07:52:54;1.20;;;1.10;;
1404;SDS011;697;51.114;6.542;2022-09-03T07:55:22;3.90;;;1.30;;
1404;SDS011;697;51.114;6.542;2022-09-03T07:57:52;3.70;;;0.97;;
1404;SDS011;697;51.114;6.542;2022-09-03T08:00:23;1.50;;;1.10;;
1404;SDS011;697;51.114;6.542;2022-09-03T08:02:50;2.07;;;1.10;;
1404;SDS011;697;51.114;6.542;2022-09-03T08:05:19;1.13;;;1.03;;
1404;SDS011;697;51.114;6.542;2022-09-03T08:07:46;2.40;;;1.20;;
1404;SDS011;697;51.114;6.542;2022-09-03T08:10:15;1.40;;;1.23;;
1404;SDS011;697;51.114;6.542;2022-09-03T08:12:42;1.43;;;0.97;;
1404;SDS011;697;51.114;6.542;2022-09-03T08:15:08;1.10;;;0.93;;
1404;SDS011;697;51.114;6.542;2022-09-03T08:17:36;5.40;;;1.70;;
1404;SDS011;697;51.114;6.542;2022-09-03T08:20:02;1.77;;;1.40;;
1404;SDS011;697;51.114;6.542;2022-09-03T08:22:31;4.70;;;1.67;;
1404;SDS011;697;51.114;6.542;2022-09-03T08:24:58;0.93;;;0.80;;
1404;SDS011;697;51.114;6.542;2022-09-03T08:27:25;1.53;;;1.40;;
1404;SDS011;697;51.114;6.542;2022-09-03T08:29:53;1.93;;;1.10;;
1404;SDS011;697;51.114;6.542;2022-09-03T08:32:20;1.67;;;1.30;;
1404;SDS011;697;51.114;6.542;2022-09-03T08:34:47;2.00;;;1.30;;
1404;SDS011;697;51.114;6.542;2022-09-03T08:37:14;1.40;;;1.30;;
1404;SDS011;697;51.114;6.542;2022-09-03T08:39:43;1.97;;;1.30;;
1404;SDS011;697;51.114;6.542;2022-09-03T08:45:06;1.90;;;1.70;;
1404;SDS011;697;51.114;6.542;2022-09-03T08:47:36;4.83;;;1.93;;
1404;SDS011;697;51.114;6.542;2022-09-03T08:50:09;4.27;;;1.90;;
1404;SDS011;697;51.114;6.542;2022-09-03T08:52:43;5.53;;;1.77;;
1404;SDS011;697;51.114;6.542;2022-09-03T08:55:16;2.47;;;1.27;;
1404;SDS011;697;51.114;6.542;2022-09-03T08:57:48;4.30;;;1.10;;
1404;SDS011;697;51.114;6.542;2022-09-03T09:00:18;3.50;;;1.60;;
1404;SDS011;697;51.114;6.542;2022-09-03T09:02:47;2.23;;;1.90;;
1404;SDS011;697;51.114;6.542;2022-09-03T09:05:22;3.43;;;1.40;;
1404;SDS011;697;51.114;6.542;2022-09-03T09:07:57;1.30;;;1.20;;
1404;SDS011;697;51.114;6.542;2022-09-03T09:10:32;3.80;;;1.73;;
1404;SDS011;697;51.114;6.542;2022-09-03T09:13:06;5.20;;;1.30;;
1404;SDS011;697;51.114;6.542;2022-09-03T09:15:42;3.97;;;1.50;;
1404;SDS011;697;51.114;6.542;2022-09-03T09:18:19;3.07;;;1.33;;
1404;SDS011;697;51.114;6.542;2022-09-03T09:20:53;2.73;;;1.30;;
1404;SDS011;697;51.114;6.542;2022-09-03T09:23:25;2.70;;;1.40;;
1404;SDS011;697;51.114;6.542;2022-09-03T09:25:58;3.87;;;1.33;;
1404;SDS011;697;51.114;6.542;2022-09-03T09:28:28;1.97;;;1.33;;
1404;SDS011;697;51.114;6.542;2022-09-03T09:30:58;2.67;;;1.53;;
1404;SDS011;697;51.114;6.542;2022-09-03T09:33:28;4.03;;;1.77;;
1404;SDS011;697;51.114;6.542;2022-09-03T09:35:58;3.00;;;1.10;;
1404;SDS011;697;51.114;6.542;2022-09-03T09:38:26;1.63;;;1.37;;
1404;SDS011;697;51.114;6.542;2022-09-03T09:40:54;1.00;;;1.00;;
1404;SDS011;697;51.114;6.542;2022-09-03T09:43:24;2.00;;;1.63;;
1404;SDS011;697;51.114;6.542;2022-09-03T09:45:52;2.83;;;1.67;;
1404;SDS011;697;51.114;6.542;2022-09-03T09:48:20;4.23;;;1.30;;
1404;SDS011;697;51.114;6.542;2022-09-03T09:51:05;2.43;;;1.50;;
1404;SDS011;697;51.114;6.542;2022-09-03T09:53:34;2.40;;;2.17;;
1404;SDS011;697;51.114;6.542;2022-09-03T09:56:03;7.37;;;1.80;;
1404;SDS011;697;51.114;6.542;2022-09-03T09:58:32;2.43;;;2.03;;
1404;SDS011;697;51.114;6.542;2022-09-03T10:01:01;3.03;;;1.63;;
1404;SDS011;697;51.114;6.542;2022-09-03T10:03:38;1.97;;;1.60;;
1404;SDS011;697;51.114;6.542;2022-09-03T10:06:13;2.93;;;1.50;;
1404;SDS011;697;51.114;6.542;2022-09-03T10:09:08;1.70;;;1.33;;
1404;SDS011;697;51.114;6.542;2022-09-03T10:11:37;3.13;;;1.90;;
1404;SDS011;697;51.114;6.542;2022-09-03T10:14:12;5.53;;;2.00;;
1404;SDS011;697;51.114;6.542;2022-09-03T10:16:44;1.97;;;1.77;;
1404;SDS011;697;51.114;6.542;2022-09-03T10:19:15;6.93;;;2.30;;
1404;SDS011;697;51.114;6.542;2022-09-03T10:21:46;2.83;;;1.60;;
1404;SDS011;697;51.114;6.542;2022-09-03T10:24:25;2.37;;;2.10;;
1404;SDS011;697;51.114;6.542;2022-09-03T10:27:03;7.73;;;1.70;;
1404;SDS011;697;51.114;6.542;2022-09-03T10:29:33;1.77;;;1.37;;
1404;SDS011;697;51.114;6.542;2022-09-03T10:32:08;1.80;;;1.70;;
1404;SDS011;697;51.114;6.542;2022-09-03T10:35:12;4.67;;;1.63;;
1404;SDS011;697;51.114;6.542;2022-09-03T10:37:50;3.37;;;2.00;;
1404;SDS011;697;51.114;6.542;2022-09-03T10:40:29;2.83;;;2.07;;
1404;SDS011;697;51.114;6.542;2022-09-03T10:43:07;2.60;;;1.80;;
1404;SDS011;697;51.114;6.542;2022-09-03T10:45:48;3.53;;;1.90;;
1404;SDS011;697;51.114;6.542;2022-09-03T10:48:29;2.27;;;1.63;;
1404;SDS011;697;51.114;6.542;2022-09-03T10:51:11;4.00;;;1.70;;
1404;SDS011;697;51.114;6.542;2022-09-03T10:53:57;4.97;;;1.77;;
1404;SDS011;697;51.114;6.542;2022-09-03T10:56:37;3.70;;;2.40;;
1404;SDS011;697;51.114;6.542;2022-09-03T10:59:19;2.03;;;1.80;;
1404;SDS011;697;51.114;6.542;2022-09-03T11:01:57;3.93;;;2.10;;
1404;SDS011;697;51.114;6.542;2022-09-03T11:04:35;3.20;;;2.07;;
1404;SDS011;697;51.114;6.542;2022-09-03T11:07:09;2.90;;;1.90;;
1404;SDS011;697;51.114;6.542;2022-09-03T11:09:39;2.50;;;1.70;;
1404;SDS011;697;51.114;6.542;2022-09-03T11:12:09;2.50;;;1.73;;
1404;SDS011;697;51.114;6.542;2022-09-03T11:14:42;1.87;;;1.60;;
1404;SDS011;697;51.114;6.542;2022-09-03T11:17:14;1.83;;;1.60;;
1404;SDS011;697;51.114;6.542;2022-09-03T11:19:47;2.77;;;2.07;;
1404;SDS011;697;51.114;6.542;2022-09-03T11:22:18;2.43;;;2.00;;
1404;SDS011;697;51.114;6.542;2022-09-03T11:24:48;2.90;;;2.27;;
1404;SDS011;697;51.114;6.542;2022-09-03T11:27:29;3.80;;;2.20;;
1404;SDS011;697;51.114;6.542;2022-09-03T11:30:11;3.30;;;2.00;;
1404;SDS011;697;51.114;6.542;2022-09-03T11:32:44;2.83;;;1.60;;
1404;SDS011;697;51.114;6.542;2022-09-03T11:35:24;6.60;;;1.80;;
1404;SDS011;697;51.114;6.542;2022-09-03T11:37:53;2.23;;;2.03;;
1404;SDS011;697;51.114;6.542;2022-09-03T11:40:27;2.77;;;2.57;;
1404;SDS011;697;51.114;6.542;2022-09-03T11:43:05;2.57;;;2.07;;
1404;SDS011;697;51.114;6.542;2022-09-03T11:45:36;2.20;;;2.00;;
1404;SDS011;697;51.114;6.542;2022-09-03T11:48:17;5.53;;;2.07;;
1404;SDS011;697;51.114;6.542;2022-09-03T11:50:54;2.83;;;2.37;;
1404;SDS011;697;51.114;6.542;2022-09-03T11:53:23;4.07;;;2.23;;
1404;SDS011;697;51.114;6.542;2022-09-03T11:55:52;2.43;;;2.20;;
1404;SDS011;697;51.114;6.542;2022-09-03T11:58:22;2.90;;;2.37;;
1404;SDS011;697;51.114;6.542;2022-09-03T12:00:51;2.50;;;2.10;;
1404;SDS011;697;51.114;6.542;2022-09-03T12:03:22;2.10;;;2.00;;
1404;SDS011;697;51.114;6.542;2022-09-03T12:05:58;2.40;;;1.90;;
1404;SDS011;697;51.114;6.542;2022-09-03T12:08:40;3.10;;;2.03;;
1404;SDS011;697;51.114;6.542;2022-09-03T12:11:33;2.83;;;2.10;;
1404;SDS011;697;51.114;6.542;2022-09-03T12:14:12;2.05;;;1.52;;
1404;SDS011;697;51.114;6.542;2022-09-03T12:16:48;2.28;;;2.08;;
1404;SDS011;697;51.114;6.542;2022-09-03T12:19:26;3.60;;;2.00;;
1404;SDS011;697;51.114;6.542;2022-09-03T12:22:00;2.97;;;1.73;;
1404;SDS011;697;51.114;6.542;2022-09-03T12:24:28;2.75;;;2.03;;
1404;SDS011;697;51.114;6.542;2022-09-03T12:26:59;2.97;;;1.95;;
1404;SDS011;697;51.114;6.542;2022-09-03T12:29:27;4.35;;;1.73;;
1404;SDS011;697;51.114;6.542;2022-09-03T12:32:03;5.63;;;1.90;;
1404;SDS011;697;51.114;6.542;2022-09-03T12:34:33;3.72;;;1.85;;
1404;SDS011;697;51.114;6.542;2022-09-03T12:37:00;5.82;;;2.13;;
1404;SDS011;697;51.114;6.542;2022-09-03T12:39:27;2.67;;;1.90;;
1404;SDS011;697;51.114;6.542;2022-09-03T12:41:57;4.47;;;1.88;;
1404;SDS011;697;51.114;6.542;2022-09-03T12:44:28;3.15;;;1.77;;
1404;SDS011;697;51.114;6.542;2022-09-03T12:47:00;5.28;;;1.88;;
1404;SDS011;697;51.114;6.542;2022-09-03T12:49:34;3.33;;;2.00;;
1404;SDS011;697;51.114;6.542;2022-09-03T12:52:03;2.17;;;1.92;;
1404;SDS011;697;51.114;6.542;2022-09-03T12:54:37;2.65;;;1.85;;
1404;SDS011;697;51.114;6.542;2022-09-03T12:57:09;3.42;;;1.77;;
1404;SDS011;697;51.114;6.542;2022-09-03T12:59:38;1.88;;;1.70;;
1404;SDS011;697;51.114;6.542;2022-09-03T13:02:09;4.80;;;1.85;;
1404;SDS011;697;51.114;6.542;2022-09-03T13:04:44;2.22;;;1.65;;
1404;SDS011;697;51.114;6.542;2022-09-03T13:07:13;2.30;;;1.90;;
1404;SDS011;697;51.114;6.542;2022-09-03T13:09:48;1.75;;;1.65;;
1404;SDS011;697;51.114;6.542;2022-09-03T13:12:19;2.08;;;1.60;;
1404;SDS011;697;51.114;6.542;2022-09-03T13:14:49;4.32;;;1.95;;
1404;SDS011;697;51.114;6.542;2022-09-03T13:17:19;1.52;;;1.42;;
1404;SDS011;697;51.114;6.542;2022-09-03T13:20:01;2.00;;;1.80;;
1404;SDS011;697;51.114;6.542;2022-09-03T13:22:55;2.30;;;1.80;;
1404;SDS011;697;51.114;6.542;2022-09-03T13:25:33;2.38;;;1.92;;
1404;SDS011;697;51.114;6.542;2022-09-03T13:28:06;2.28;;;1.80;;
1404;SDS011;697;51.114;6.542;2022-09-03T13:30:52;1.77;;;1.67;;
1404;SDS011;697;51.114;6.542;2022-09-03T13:33:23;4.85;;;1.77;;
1404;SDS011;697;51.114;6.542;2022-09-03T13:35:59;2.60;;;1.55;;
1404;SDS011;697;51.114;6.542;2022-09-03T13:38:31;2.50;;;1.80;;
1404;SDS011;697;51.114;6.542;2022-09-03T13:41:06;1.83;;;1.73;;
1404;SDS011;697;51.114;6.542;2022-09-03T13:43:39;2.47;;;1.83;;
1404;SDS011;697;51.114;6.542;2022-09-03T13:46:10;2.65;;;1.80;;
1404;SDS011;697;51.114;6.542;2022-09-03T13:48:42;1.90;;;1.73;;
1404;SDS011;697;51.114;6.542;2022-09-03T13:51:29;3.42;;;2.63;;
1404;SDS011;697;51.114;6.542;2022-09-03T13:54:04;2.25;;;1.83;;
1404;SDS011;697;51.114;6.542;2022-09-03T13:56:43;2.30;;;2.10;;
1404;SDS011;697;51.114;6.542;2022-09-03T13:59:23;2.20;;;1.95;;
1404;SDS011;697;51.114;6.542;2022-09-03T14:02:01;2.25;;;2.05;;
1404;SDS011;697;51.114;6.542;2022-09-03T14:04:39;2.60;;;2.40;;
1404;SDS011;697;51.114;6.542;2022-09-03T14:07:18;2.70;;;1.95;;
1404;SDS011;697;51.114;6.542;2022-09-03T14:09:51;2.55;;;2.22;;
1404;SDS011;697;51.114;6.542;2022-09-03T14:12:24;3.70;;;1.80;;
1404;SDS011;697;51.114;6.542;2022-09-03T14:15:02;3.50;;;1.83;;
1404;SDS011;697;51.114;6.542;2022-09-03T14:17:36;3.17;;;1.48;;
1404;SDS011;697;51.114;6.542;2022-09-03T14:20:07;1.88;;;1.77;;
1404;SDS011;697;51.114;6.542;2022-09-03T14:22:43;3.15;;;2.30;;
1404;SDS011;697;51.114;6.542;2022-09-03T14:25:16;5.70;;;1.85;;
1404;SDS011;697;51.114;6.542;2022-09-03T14:27:44;4.18;;;2.50;;
1404;SDS011;697;51.114;6.542;2022-09-03T14:30:19;4.50;;;1.95;;
1404;SDS011;697;51.114;6.542;2022-09-03T14:32:56;1.90;;;1.80;;
1404;SDS011;697;51.114;6.542;2022-09-03T14:35:51;2.17;;;1.60;;
1404;SDS011;697;51.114;6.542;2022-09-03T14:38:32;2.00;;;1.90;;
1404;SDS011;697;51.114;6.542;2022-09-03T14:41:30;2.42;;;1.83;;
1404;SDS011;697;51.114;6.542;2022-09-03T14:44:12;5.15;;;1.83;;
1404;SDS011;697;51.114;6.542;2022-09-03T14:46:56;1.70;;;1.60;;
1404;SDS011;697;51.114;6.542;2022-09-03T14:49:40;2.13;;;2.03;;
1404;SDS011;697;51.114;6.542;2022-09-03T14:52:22;2.33;;;2.13;;
1404;SDS011;697;51.114;6.542;2022-09-03T14:55:17;2.38;;;2.05;;
1404;SDS011;697;51.114;6.542;2022-09-03T14:58:01;2.17;;;1.42;;
1404;SDS011;697;51.114;6.542;2022-09-03T15:00:43;2.05;;;1.95;;
1404;SDS011;697;51.114;6.542;2022-09-03T15:03:19;4.32;;;1.98;;
1404;SDS011;697;51.114;6.542;2022-09-03T15:06:03;2.95;;;1.67;;
1404;SDS011;697;51.114;6.542;2022-09-03T15:08:45;2.17;;;1.98;;
1404;SDS011;697;51.114;6.542;2022-09-03T15:11:21;3.25;;;2.38;;
1404;SDS011;697;51.114;6.542;2022-09-03T15:13:51;2.28;;;2.08;;
1404;SDS011;697;51.114;6.542;2022-09-03T15:16:28;2.03;;;1.92;;
1404;SDS011;697;51.114;6.542;2022-09-03T15:19:08;3.08;;;2.05;;
1404;SDS011;697;51.114;6.542;2022-09-03T15:21:48;11.07;;;2.50;;
1404;SDS011;697;51.114;6.542;2022-09-03T15:24:26;4.63;;;2.35;;
1404;SDS011;697;51.114;6.542;2022-09-03T15:27:09;2.53;;;2.13;;
1404;SDS011;697;51.114;6.542;2022-09-03T15:29:48;2.95;;;2.75;;
1404;SDS011;697;51.114;6.542;2022-09-03T15:32:25;2.85;;;2.60;;
1404;SDS011;697;51.114;6.542;2022-09-03T15:35:04;3.80;;;2.90;;
1404;SDS011;697;51.114;6.542;2022-09-03T15:37:34;3.72;;;2.45;;
1404;SDS011;697;51.114;6.542;2022-09-03T15:40:06;2.97;;;2.40;;
1404;SDS011;697;51.114;6.542;2022-09-03T15:42:43;2.85;;;2.58;;
1404;SDS011;697;51.114;6.542;2022-09-03T15:45:14;2.93;;;2.73;;
1404;SDS011;697;51.114;6.542;2022-09-03T15:47:49;6.83;;;3.03;;
1404;SDS011;697;51.114;6.542;2022-09-03T15:50:28;4.03;;;3.13;;
1404;SDS011;697;51.114;6.542;2022-09-03T15:53:01;3.30;;;3.10;;
1404;SDS011;697;51.114;6.542;2022-09-03T15:55:32;3.17;;;2.87;;
1404;SDS011;697;51.114;6.542;2022-09-03T15:58:05;3.17;;;2.87;;
1404;SDS011;697;51.114;6.542;2022-09-03T16:00:50;3.90;;;2.97;;
1404;SDS011;697;51.114;6.542;2022-09-03T16:03:30;5.70;;;2.90;;
1404;SDS011;697;51.114;6.542;2022-09-03T16:06:06;2.80;;;2.60;;